createdAt,value
2018-02-12T00:00:45.670Z,97609
2018-02-12T00:03:13.269Z,97615
2018-02-12T00:05:40.831Z,97620
2018-02-12T00:08:08.404Z,97617
2018-02-12T00:10:37.688Z,97614
2018-02-12T00:13:06.770Z,97623
2018-02-12T00:15:34.338Z,97611
2018-02-12T00:18:01.909Z,97623
2018-02-12T00:20:29.573Z,97625
2018-02-12T00:22:57.948Z,97620
2018-02-12T00:25:25.629Z,97631
2018-02-12T00:27:54.098Z,97625
2018-02-12T00:30:22.427Z,97628
2018-02-12T00:32:50.054Z,97622
2018-02-12T00:35:18.415Z,97626
2018-02-12T00:37:46.084Z,97627
2018-02-12T00:40:14.465Z,97633
2018-02-12T00:42:42.790Z,97635
2018-02-12T00:45:10.400Z,97644
2018-02-12T00:47:38.727Z,97639
2018-02-12T00:50:07.678Z,97635
2018-02-12T00:52:36.557Z,97641
2018-02-12T00:55:04.114Z,97642
2018-02-12T00:57:33.225Z,97650
2018-02-12T01:00:01.604Z,97648
2018-02-12T01:02:29.978Z,97653
2018-02-12T01:04:58.363Z,97656
2018-02-12T01:07:26.741Z,97647
2018-02-12T01:09:55.068Z,97644
2018-02-12T01:12:22.674Z,97654
2018-02-12T01:14:51.010Z,97651
2018-02-12T01:17:18.620Z,97655
2018-02-12T01:19:46.960Z,97649
2018-02-12T01:22:14.527Z,97648
2018-02-12T01:24:42.123Z,97650
2018-02-12T01:27:10.495Z,97654
2018-02-12T01:29:38.061Z,97643
2018-02-12T01:32:06.892Z,97654
2018-02-12T01:34:34.471Z,97654
2018-02-12T01:37:02.048Z,97666
2018-02-12T01:39:29.732Z,97664
2018-02-12T01:41:58.109Z,97665
2018-02-12T01:44:25.669Z,97666
2018-02-12T01:46:53.280Z,97666
2018-02-12T01:49:20.840Z,97661
2018-02-12T01:51:48.396Z,97664
2018-02-12T01:54:15.960Z,97654
2018-02-12T01:56:43.520Z,97662
2018-02-12T01:59:11.139Z,97658
2018-02-12T02:01:39.469Z,97664
2018-02-12T02:04:07.078Z,97670
2018-02-12T02:06:36.783Z,97666
2018-02-12T02:09:04.387Z,97666
2018-02-12T02:11:31.948Z,97678
2018-02-12T02:14:00.283Z,97666
2018-02-12T02:16:27.841Z,97669
2018-02-12T02:18:55.513Z,97678
2018-02-12T02:21:23.843Z,97665
2018-02-12T02:23:51.453Z,97677
2018-02-12T02:26:19.785Z,97674
2018-02-12T02:28:47.380Z,97672
2018-02-12T02:31:15.053Z,97674
2018-02-12T02:33:43.501Z,97672
2018-02-12T02:36:11.194Z,97671
2018-02-12T02:38:38.745Z,97666
2018-02-12T02:41:07.136Z,97666
2018-02-12T02:43:35.430Z,97661
2018-02-12T02:46:03.762Z,97674
2018-02-12T02:48:31.325Z,97663
2018-02-12T02:50:58.892Z,97672
2018-02-12T02:53:26.480Z,97657
2018-02-12T02:55:54.810Z,97680
2018-02-12T02:58:22.396Z,97676
2018-02-12T03:00:49.957Z,97675
2018-02-12T03:03:17.532Z,97673
2018-02-12T03:05:45.197Z,97673
2018-02-12T03:08:12.764Z,97676
2018-02-12T03:10:41.145Z,97669
2018-02-12T03:13:09.547Z,97668
2018-02-12T03:15:37.183Z,97681
2018-02-12T03:18:06.172Z,97687
2018-02-12T03:20:33.733Z,97686
2018-02-12T03:23:01.374Z,97683
2018-02-12T03:25:28.960Z,97686
2018-02-12T03:27:57.300Z,97684
2018-02-12T03:30:24.857Z,97685
2018-02-12T03:32:52.418Z,97689
2018-02-12T03:35:19.986Z,97676
2018-02-12T03:37:47.557Z,97684
2018-02-12T03:40:15.141Z,97698
2018-02-12T03:42:43.521Z,97690
2018-02-12T03:45:11.858Z,97690
2018-02-12T03:47:39.460Z,97708
2018-02-12T03:50:07.403Z,97706
2018-02-12T03:52:35.588Z,97700
2018-02-12T03:55:03.212Z,97696
2018-02-12T03:57:30.827Z,97704
2018-02-12T03:59:58.400Z,97703
2018-02-12T04:02:26.725Z,97710
2018-02-12T04:04:54.327Z,97712
2018-02-12T04:07:21.888Z,97716
2018-02-12T04:09:50.266Z,97718
2018-02-12T04:12:18.643Z,97719
2018-02-12T04:14:46.310Z,97715
2018-02-12T04:17:13.864Z,97726
2018-02-12T04:19:41.530Z,97715
2018-02-12T04:22:09.195Z,97716
2018-02-12T04:24:37.259Z,97703
2018-02-12T04:27:05.221Z,97717
2018-02-12T04:29:32.803Z,97721
2018-02-12T04:33:21.767Z,97715
2018-02-12T04:35:50.162Z,97728
2018-02-12T04:38:18.491Z,97728
2018-02-12T04:40:46.076Z,97715
2018-02-12T04:43:13.685Z,97716
2018-02-12T04:45:41.301Z,97722
2018-02-12T04:48:08.903Z,97717
2018-02-12T04:50:37.665Z,97717
2018-02-12T04:53:06.643Z,97715
2018-02-12T04:55:34.319Z,97709
2018-02-12T04:58:02.697Z,97699
2018-02-12T05:00:31.036Z,97709
2018-02-12T05:02:58.634Z,97704
2018-02-12T05:05:27.024Z,97720
2018-02-12T05:07:55.364Z,97729
2018-02-12T05:10:22.923Z,97734
2018-02-12T05:12:50.495Z,97728
2018-02-12T05:15:18.059Z,97723
2018-02-12T05:17:46.398Z,97725
2018-02-12T05:20:14.021Z,97733
2018-02-12T05:22:42.519Z,97722
2018-02-12T05:25:10.097Z,97724
2018-02-12T05:27:37.736Z,97730
2018-02-12T05:30:06.613Z,97746
2018-02-12T05:32:34.257Z,97739
2018-02-12T05:35:01.842Z,97741
2018-02-12T05:37:30.180Z,97750
2018-02-12T05:39:57.774Z,97754
2018-02-12T05:42:25.330Z,97753
2018-02-12T05:44:52.887Z,97765
2018-02-12T05:47:20.459Z,97752
2018-02-12T05:49:48.836Z,97749
2018-02-12T05:52:16.398Z,97765
2018-02-12T05:54:44.720Z,97768
2018-02-12T05:57:12.301Z,97758
2018-02-12T05:59:39.903Z,97760
2018-02-12T06:02:08.242Z,97772
2018-02-12T06:04:35.828Z,97777
2018-02-12T06:07:03.398Z,97773
2018-02-12T06:09:30.969Z,97776
2018-02-12T06:11:59.339Z,97782
2018-02-12T06:14:27.672Z,97784
2018-02-12T06:16:55.232Z,97792
2018-02-12T06:19:22.834Z,97801
2018-02-12T06:21:50.494Z,97805
2018-02-12T06:24:18.206Z,97805
2018-02-12T06:26:45.822Z,97810
2018-02-12T06:29:14.160Z,97800
2018-02-12T06:31:41.735Z,97812
2018-02-12T06:34:11.185Z,97814
2018-02-12T06:36:38.797Z,97821
2018-02-12T06:39:08.028Z,97825
2018-02-12T06:41:36.587Z,97817
2018-02-12T06:44:04.208Z,97826
2018-02-12T06:46:31.778Z,97837
2018-02-12T06:48:59.394Z,97836
2018-02-12T06:51:27.783Z,97839
2018-02-12T06:53:56.387Z,97840
2018-02-12T06:56:24.022Z,97843
2018-02-12T06:58:51.606Z,97853
2018-02-12T07:01:19.192Z,97859
2018-02-12T07:03:46.766Z,97862
2018-02-12T07:06:14.337Z,97857
2018-02-12T07:08:41.895Z,97862
2018-02-12T07:11:09.590Z,97862
2018-02-12T07:13:37.274Z,97865
2018-02-12T07:16:06.670Z,97864
2018-02-12T07:18:35.462Z,97876
2018-02-12T07:21:03.830Z,97877
2018-02-12T07:23:32.157Z,97886
2018-02-12T07:25:59.775Z,97880
2018-02-12T07:28:28.126Z,97891
2018-02-12T07:30:55.706Z,97886
2018-02-12T07:33:23.294Z,97896
2018-02-12T07:35:51.880Z,97896
2018-02-12T07:38:19.449Z,97912
2018-02-12T07:40:47.189Z,97919
2018-02-12T07:43:15.530Z,97916
2018-02-12T07:45:43.147Z,97927
2018-02-12T07:48:10.727Z,97927
2018-02-12T07:50:38.289Z,97929
2018-02-12T07:53:06.256Z,97926
2018-02-12T07:55:33.848Z,97938
2018-02-12T07:58:03.324Z,97942
2018-02-12T08:00:31.068Z,97937
2018-02-12T08:02:58.935Z,97938
2018-02-12T08:05:26.570Z,97948
2018-02-12T08:07:54.989Z,97952
2018-02-12T08:10:22.779Z,97959
2018-02-12T08:12:50.347Z,97973
2018-02-12T08:15:18.019Z,97956
2018-02-12T08:17:47.148Z,97962
2018-02-12T08:20:15.517Z,97966
2018-02-12T08:22:43.918Z,97970
2018-02-12T08:25:11.579Z,97986
2018-02-12T08:27:39.148Z,97976
2018-02-12T08:30:07.259Z,97986
2018-02-12T08:32:35.279Z,97985
2018-02-12T08:35:03.651Z,97990
2018-02-12T08:37:32.038Z,98004
2018-02-12T08:40:00.384Z,98007
2018-02-12T08:42:27.936Z,98021
2018-02-12T08:44:56.431Z,98025
2018-02-12T08:47:24.080Z,98022
2018-02-12T08:49:51.686Z,98015
2018-02-12T08:52:20.012Z,98028
2018-02-12T08:54:47.574Z,98034
2018-02-12T08:57:15.136Z,98041
2018-02-12T08:59:42.830Z,98046
2018-02-12T09:02:11.259Z,98047
2018-02-12T09:04:38.830Z,98055
2018-02-12T09:07:07.180Z,98056
2018-02-12T09:09:35.442Z,98062
2018-02-12T09:12:03.928Z,98062
2018-02-12T09:14:31.542Z,98058
2018-02-12T09:16:59.128Z,98065
2018-02-12T09:19:26.802Z,98064
2018-02-12T09:21:55.300Z,98068
2018-02-12T09:24:22.925Z,98068
2018-02-12T09:26:50.513Z,98078
2018-02-12T09:29:18.171Z,98082
2018-02-12T09:31:45.750Z,98090
2018-02-12T09:34:13.397Z,98095
2018-02-12T09:36:41.738Z,98095
2018-02-12T09:39:09.361Z,98089
2018-02-12T09:41:36.935Z,98092
2018-02-12T09:44:04.516Z,98096
2018-02-12T09:46:32.130Z,98103
2018-02-12T09:48:59.785Z,98097
2018-02-12T09:51:28.133Z,98108
2018-02-12T09:53:55.712Z,98110
2018-02-12T09:56:24.075Z,98114
2018-02-12T09:58:51.765Z,98123
2018-02-12T10:01:20.165Z,98129
2018-02-12T10:03:47.826Z,98131
2018-02-12T10:06:15.508Z,98134
2018-02-12T10:08:43.104Z,98140
2018-02-12T10:11:10.667Z,98139
2018-02-12T10:13:38.662Z,98137
2018-02-12T10:16:07.009Z,98146
2018-02-12T10:18:34.666Z,98137
2018-02-12T10:21:03.172Z,98142
2018-02-12T10:23:30.747Z,98145
2018-02-12T10:25:58.341Z,98142
2018-02-12T10:28:25.998Z,98145
2018-02-12T10:30:53.643Z,98151
2018-02-12T10:33:21.220Z,98149
2018-02-12T10:35:48.798Z,98150
2018-02-12T10:38:16.385Z,98157
2018-02-12T10:40:43.981Z,98149
2018-02-12T10:43:12.339Z,98155
2018-02-12T10:45:39.945Z,98157
2018-02-12T10:48:07.588Z,98142
2018-02-12T10:50:36.259Z,98162
2018-02-12T10:53:04.583Z,98169
2018-02-12T10:55:32.220Z,98156
2018-02-12T10:57:59.792Z,98164
2018-02-12T11:00:27.395Z,98160
2018-02-12T11:02:55.288Z,98167
2018-02-12T11:05:23.639Z,98169
2018-02-12T11:07:51.219Z,98164
2018-02-12T11:10:19.584Z,98168
2018-02-12T11:12:47.171Z,98166
2018-02-12T11:15:15.598Z,98169
2018-02-12T11:17:43.207Z,98180
2018-02-12T11:20:11.606Z,98180
2018-02-12T11:22:39.222Z,98180
2018-02-12T11:25:07.975Z,98172
2018-02-12T11:27:36.764Z,98177
2018-02-12T11:30:04.369Z,98179
2018-02-12T11:32:31.956Z,98183
2018-02-12T11:35:00.365Z,98183
2018-02-12T11:37:28.005Z,98185
2018-02-12T11:39:56.353Z,98173
2018-02-12T11:42:23.945Z,98181
2018-02-12T11:44:51.519Z,98178
2018-02-12T11:47:19.116Z,98173
2018-02-12T11:49:46.719Z,98178
2018-02-12T11:52:15.057Z,98173
2018-02-12T11:54:42.626Z,98180
2018-02-12T11:57:10.216Z,98184
2018-02-12T11:59:38.620Z,98181
2018-02-12T12:02:07.266Z,98179
2018-02-12T12:04:35.268Z,98175
2018-02-12T12:07:02.868Z,98175
2018-02-12T12:09:30.475Z,98181
2018-02-12T12:11:58.825Z,98177
2018-02-12T12:14:26.400Z,98179
2018-02-12T12:16:53.984Z,98186
2018-02-12T12:19:22.337Z,98180
2018-02-12T12:21:50.743Z,98180
2018-02-12T12:24:19.116Z,98172
2018-02-12T12:26:47.488Z,98176
2018-02-12T12:29:15.870Z,98177
2018-02-12T12:31:44.216Z,98165
2018-02-12T12:34:11.820Z,98180
2018-02-12T12:36:40.195Z,98178
2018-02-12T12:39:08.538Z,98166
2018-02-12T12:41:37.433Z,98166
2018-02-12T12:44:05.679Z,98158
2018-02-12T12:46:33.313Z,98174
2018-02-12T12:49:01.683Z,98171
2018-02-12T12:51:29.303Z,98176
2018-02-12T12:53:57.659Z,98176
2018-02-12T12:56:25.221Z,98168
2018-02-12T12:58:52.810Z,98178
2018-02-12T13:01:20.370Z,98171
2018-02-12T13:03:48.741Z,98179
2018-02-12T13:06:16.385Z,98181
2018-02-12T13:08:43.958Z,98179
2018-02-12T13:11:11.515Z,98199
2018-02-12T13:13:39.867Z,98205
2018-02-12T13:16:07.428Z,98219
2018-02-12T13:18:35.773Z,98234
2018-02-12T13:21:03.353Z,98228
2018-02-12T13:23:30.948Z,98236
2018-02-12T13:25:58.526Z,98234
2018-02-12T13:28:26.087Z,98239
2018-02-12T13:30:53.660Z,98240
2018-02-12T13:33:22.009Z,98246
2018-02-12T13:35:49.587Z,98242
2018-02-12T13:38:17.139Z,98236
2018-02-12T13:40:44.750Z,98237
2018-02-12T13:43:12.335Z,98243
2018-02-12T13:45:40.660Z,98238
2018-02-12T13:48:08.253Z,98243
2018-02-12T13:50:35.831Z,98245
2018-02-12T13:53:03.404Z,98247
2018-02-12T13:55:30.988Z,98237
2018-02-12T13:57:58.543Z,98244
2018-02-12T14:00:26.127Z,98244
2018-02-12T14:02:53.716Z,98246
2018-02-12T14:05:21.289Z,98249
2018-02-12T14:07:48.886Z,98258
2018-02-12T14:10:16.483Z,98260
2018-02-12T14:12:44.060Z,98266
2018-02-12T14:15:11.626Z,98261
2018-02-12T14:17:39.202Z,98262
2018-02-12T14:20:06.776Z,98265
2018-02-12T14:22:34.619Z,98267
2018-02-12T14:25:02.187Z,98268
2018-02-12T14:27:29.732Z,98275
2018-02-12T14:29:57.306Z,98279
2018-02-12T14:32:24.948Z,98264
2018-02-12T14:34:52.530Z,98257
2018-02-12T14:37:20.141Z,98264
2018-02-12T14:39:48.474Z,98262
2018-02-12T14:42:16.033Z,98252
2018-02-12T14:44:43.693Z,98264
2018-02-12T14:47:11.277Z,98262
2018-02-12T14:49:39.610Z,98264
2018-02-12T14:52:07.160Z,98253
2018-02-12T14:54:35.497Z,98265
2018-02-12T14:57:03.058Z,98260
2018-02-12T14:59:31.412Z,98268
2018-02-12T15:01:58.963Z,98266
2018-02-12T15:04:26.638Z,98271
2018-02-12T15:06:54.962Z,98282
2018-02-12T15:09:22.521Z,98269
2018-02-12T15:11:50.091Z,98286
2018-02-12T15:14:17.781Z,98279
2018-02-12T15:16:45.368Z,98273
2018-02-12T15:19:12.923Z,98284
2018-02-12T15:21:40.504Z,98289
2018-02-12T15:24:08.077Z,98298
2018-02-12T15:26:35.639Z,98300
2018-02-12T15:29:04.015Z,98306
2018-02-12T15:31:31.578Z,98296
2018-02-12T15:33:59.138Z,98299
2018-02-12T15:36:26.702Z,98307
2018-02-12T15:38:55.039Z,98310
2018-02-12T15:41:22.597Z,98317
2018-02-12T15:43:50.166Z,98321
2018-02-12T15:46:17.756Z,98322
2018-02-12T15:48:45.315Z,98320
2018-02-12T15:51:12.888Z,98332
2018-02-12T15:53:40.440Z,98332
2018-02-12T15:56:08.006Z,98320
2018-02-12T15:58:35.561Z,98335
2018-02-12T16:01:03.108Z,98333
2018-02-12T16:03:30.661Z,98339
2018-02-12T16:05:58.220Z,98347
2018-02-12T16:08:25.791Z,98350
2018-02-12T16:10:53.346Z,98358
2018-02-12T16:13:20.906Z,98358
2018-02-12T16:15:48.464Z,98365
2018-02-12T16:18:16.027Z,98373
2018-02-12T16:20:43.579Z,98379
2018-02-12T16:23:11.780Z,98379
2018-02-12T16:25:39.332Z,98379
2018-02-12T16:28:07.202Z,98383
2018-02-12T16:30:35.528Z,98375
2018-02-12T16:33:03.131Z,98391
2018-02-12T16:35:30.703Z,98386
2018-02-12T16:37:58.271Z,98387
2018-02-12T16:40:26.596Z,98402
2018-02-12T16:42:54.202Z,98418
2018-02-12T16:45:21.790Z,98403
2018-02-12T16:47:49.358Z,98418
2018-02-12T16:50:16.966Z,98418
2018-02-12T16:52:44.528Z,98417
2018-02-12T16:55:12.099Z,98417
2018-02-12T16:57:39.652Z,98413
2018-02-12T17:00:07.212Z,98420
2018-02-12T17:02:36.697Z,98423
2018-02-12T17:05:06.921Z,98411
2018-02-12T17:07:35.280Z,98423
2018-02-12T17:10:02.845Z,98414
2018-02-12T17:12:30.423Z,98417
2018-02-12T17:14:58.000Z,98422
2018-02-12T17:17:25.564Z,98424
2018-02-12T17:19:53.134Z,98429
2018-02-12T17:22:20.685Z,98443
2018-02-12T17:24:48.253Z,98436
2018-02-12T17:27:15.823Z,98437
2018-02-12T17:29:45.962Z,98444
2018-02-12T17:32:13.543Z,98441
2018-02-12T17:34:41.862Z,98445
2018-02-12T17:37:09.423Z,98443
2018-02-12T17:39:37.839Z,98444
2018-02-12T17:42:05.454Z,98445
2018-02-12T17:44:33.011Z,98467
2018-02-12T17:47:00.780Z,98456
2018-02-12T17:49:28.351Z,98468
2018-02-12T17:51:55.921Z,98431
2018-02-12T17:54:23.485Z,98455
2018-02-12T17:56:51.035Z,98468
2018-02-12T17:59:19.390Z,98470
2018-02-12T18:01:46.972Z,98481
2018-02-12T18:04:14.525Z,98481
2018-02-12T18:06:42.071Z,98481
2018-02-12T18:09:09.632Z,98478
2018-02-12T18:11:37.180Z,98477
2018-02-12T18:14:04.738Z,98492
2018-02-12T18:16:32.315Z,98498
2018-02-12T18:18:59.905Z,98493
2018-02-12T18:21:27.482Z,98501
2018-02-12T18:23:55.814Z,98510
2018-02-12T18:26:23.406Z,98508
2018-02-12T18:28:51.733Z,98500
2018-02-12T18:31:19.526Z,98510
2018-02-12T18:33:47.888Z,98515
2018-02-12T18:36:15.455Z,98515
2018-02-12T18:38:43.788Z,98516
2018-02-12T18:41:11.366Z,98515
2018-02-12T18:43:38.984Z,98527
2018-02-12T18:46:06.616Z,98523
2018-02-12T18:48:34.190Z,98517
2018-02-12T18:51:01.766Z,98526
2018-02-12T18:53:29.357Z,98542
2018-02-12T18:55:57.334Z,98538
2018-02-12T18:58:24.907Z,98537
2018-02-12T19:00:52.461Z,98541
2018-02-12T19:03:20.115Z,98539
2018-02-12T19:05:47.688Z,98544
2018-02-12T19:08:15.283Z,98543
2018-02-12T19:10:43.605Z,98546
2018-02-12T19:13:12.025Z,98549
2018-02-12T19:15:39.627Z,98545
2018-02-12T19:18:07.194Z,98555
2018-02-12T19:20:34.771Z,98551
2018-02-12T19:23:02.337Z,98553
2018-02-12T19:25:30.670Z,98554
2018-02-12T19:27:58.233Z,98556
2018-02-12T19:30:26.598Z,98569
2018-02-12T19:32:54.173Z,98567
2018-02-12T19:35:21.767Z,98571
2018-02-12T19:37:49.348Z,98567
2018-02-12T19:40:16.963Z,98568
2018-02-12T19:42:44.496Z,98575
2018-02-12T19:45:12.058Z,98568
2018-02-12T19:47:39.612Z,98575
2018-02-12T19:50:07.178Z,98578
2018-02-12T19:52:34.737Z,98568
2018-02-12T19:55:02.312Z,98583
2018-02-12T19:57:30.537Z,98584
2018-02-12T19:59:58.130Z,98585
2018-02-12T20:02:25.690Z,98586
2018-02-12T20:04:53.368Z,98586
2018-02-12T20:07:20.924Z,98589
2018-02-12T20:09:49.319Z,98585
2018-02-12T20:12:16.884Z,98583
2018-02-12T20:14:44.460Z,98574
2018-02-12T20:17:12.018Z,98600
2018-02-12T20:19:40.349Z,98588
2018-02-12T20:22:09.549Z,98598
2018-02-12T20:24:37.115Z,98588
2018-02-12T20:27:04.683Z,98576
2018-02-12T20:29:32.263Z,98595
2018-02-12T20:31:59.829Z,98597
2018-02-12T20:34:27.422Z,98597
2018-02-12T20:36:55.034Z,98595
2018-02-12T20:39:23.271Z,98594
2018-02-12T20:41:50.857Z,98603
2018-02-12T20:44:18.419Z,98591
2018-02-12T20:46:46.755Z,98595
2018-02-12T20:49:14.315Z,98591
2018-02-12T20:51:41.891Z,98584
2018-02-12T20:54:09.470Z,98585
2018-02-12T20:56:37.806Z,98586
2018-02-12T20:59:05.422Z,98586
2018-02-12T21:01:32.986Z,98585
2018-02-12T21:04:00.606Z,98589
2018-02-12T21:06:28.959Z,98585
2018-02-12T21:08:56.581Z,98595
2018-02-12T21:11:24.151Z,98595
2018-02-12T21:13:51.759Z,98601
2018-02-12T21:16:19.344Z,98594
2018-02-12T21:18:46.910Z,98587
2018-02-12T21:21:14.486Z,98593
2018-02-12T21:23:42.045Z,98601
2018-02-12T21:26:09.609Z,98607
2018-02-12T21:28:37.169Z,98604
2018-02-12T21:31:04.788Z,98602
2018-02-12T21:33:32.390Z,98594
2018-02-12T21:35:59.959Z,98596
2018-02-12T21:38:27.568Z,98601
2018-02-12T21:40:55.175Z,98594
2018-02-12T21:43:23.055Z,98595
2018-02-12T21:45:50.662Z,98602
2018-02-12T21:50:33.315Z,98600
2018-02-12T21:53:01.524Z,98608
2018-02-12T21:55:31.871Z,98599
2018-02-12T21:58:00.919Z,98607
2018-02-12T22:00:28.558Z,98605
2018-02-12T22:02:56.118Z,98596
2018-02-12T22:05:23.779Z,98603
2018-02-12T22:07:51.571Z,98595
2018-02-12T22:10:19.174Z,98598
2018-02-12T22:12:47.512Z,98606
2018-02-12T22:15:15.329Z,98591
2018-02-12T22:17:43.698Z,98590
2018-02-12T22:20:12.048Z,98599
2018-02-12T22:22:39.752Z,98591
2018-02-12T22:25:08.092Z,98593
2018-02-12T22:27:35.685Z,98595
2018-02-12T22:30:04.036Z,98598
2018-02-12T22:32:32.399Z,98597
2018-02-12T22:34:59.976Z,98599
2018-02-12T22:37:27.577Z,98597
2018-02-12T22:39:55.170Z,98600
2018-02-12T22:42:22.777Z,98597
2018-02-12T22:44:50.356Z,98599
2018-02-12T22:47:17.947Z,98587
2018-02-12T22:49:45.607Z,98599
2018-02-12T22:52:13.183Z,98601
2018-02-12T22:54:40.785Z,98596
2018-02-12T22:57:09.186Z,98596
2018-02-12T22:59:36.799Z,98603
2018-02-12T23:02:04.392Z,98601
2018-02-12T23:04:32.774Z,98613
2018-02-12T23:07:01.114Z,98601
2018-02-12T23:09:28.711Z,98607
2018-02-12T23:11:57.129Z,98603
2018-02-12T23:14:24.726Z,98598
2018-02-12T23:16:58.008Z,98597
2018-02-12T23:19:25.615Z,98600
2018-02-12T23:21:53.253Z,98608
2018-02-12T23:24:20.903Z,98606
2018-02-12T23:26:49.238Z,98603
2018-02-12T23:29:16.913Z,98604
2018-02-12T23:31:44.531Z,98607
2018-02-12T23:34:12.889Z,98608
2018-02-12T23:36:40.479Z,98620
2018-02-12T23:39:08.812Z,98610
2018-02-12T23:41:36.372Z,98609
2018-02-12T23:44:03.979Z,98611
2018-02-12T23:46:32.374Z,98615
2018-02-12T23:48:59.940Z,98618
2018-02-12T23:51:27.583Z,98624
2018-02-12T23:53:55.908Z,98623
2018-02-12T23:56:23.469Z,98623
2018-02-12T23:58:51.050Z,98620
